createdAt,value
2022-12-11T00:01:14.608Z,95408.06
2022-12-11T00:03:44.464Z,95415.03
2022-12-11T00:06:15.600Z,95416.41
2022-12-11T00:08:43.935Z,95408.38
2022-12-11T00:11:14.895Z,95416.94
2022-12-11T00:13:43.984Z,95417.09
2022-12-11T00:16:12.374Z,95417.59
2022-12-11T00:18:41.520Z,95426.72
2022-12-11T00:21:14.683Z,95423.88
2022-12-11T00:23:43.374Z,95427.88
2022-12-11T00:26:15.406Z,95426.25
2022-12-11T00:28:45.108Z,95429.78
2022-12-11T00:31:17.826Z,95423.44
2022-12-11T00:33:48.988Z,95426.44
2022-12-11T00:36:20.435Z,95426.19
2022-12-11T00:38:49.861Z,95427.94
2022-12-11T00:41:18.764Z,95434.13
2022-12-11T00:43:47.468Z,95435.16
2022-12-11T00:46:16.462Z,95432.16
2022-12-11T00:48:46.184Z,95434.75
2022-12-11T00:51:14.428Z,95443.59
2022-12-11T00:53:44.584Z,95443.06
2022-12-11T00:56:14.850Z,95443.88
2022-12-11T00:58:43.764Z,95448.13
2022-12-11T01:01:17.902Z,95446.94
2022-12-11T01:03:46.509Z,95449.38
2022-12-11T01:06:16.435Z,95462.16
2022-12-11T01:08:47.325Z,95456.13
2022-12-11T01:11:16.690Z,95462.97
2022-12-11T01:13:45.392Z,95455.91
2022-12-11T01:16:16.034Z,95454.53
2022-12-11T01:18:44.747Z,95457.41
2022-12-11T01:21:14.474Z,95460.25
2022-12-11T01:23:42.927Z,95459.81
2022-12-11T01:26:15.557Z,95451.03
2022-12-11T01:28:44.229Z,95464.34
2022-12-11T01:31:14.291Z,95463.28
2022-12-11T01:33:42.987Z,95468.72
2022-12-11T01:36:13.940Z,95460.81
2022-12-11T01:38:42.810Z,95466.66
2022-12-11T01:41:12.800Z,95462.53
2022-12-11T01:44:01.759Z,95460.88
2022-12-11T01:46:31.534Z,95462.25
2022-12-11T01:49:01.938Z,95464.75
2022-12-11T01:51:32.179Z,95463.34
2022-12-11T01:54:03.683Z,95471.53
2022-12-11T01:56:38.744Z,95465.50
2022-12-11T01:59:09.538Z,95468.53
2022-12-11T02:01:42.438Z,95480.63
2022-12-11T02:04:12.400Z,95478.94
2022-12-11T02:06:43.749Z,95474.94
2022-12-11T02:09:15.302Z,95462.88
2022-12-11T02:11:57.052Z,95466.06
2022-12-11T02:14:33.688Z,95456.06
2022-12-11T02:17:08.111Z,95451.78
2022-12-11T02:19:49.526Z,95465.38
2022-12-11T02:22:28.653Z,95460.75
2022-12-11T02:25:10.136Z,95449.53
2022-12-11T02:27:45.217Z,95457.06
2022-12-11T02:30:16.076Z,95456.69
2022-12-11T02:32:48.595Z,95452.78
2022-12-11T02:35:22.520Z,95455.09
2022-12-11T02:37:56.437Z,95453.31
2022-12-11T02:40:31.035Z,95456.31
2022-12-11T02:43:02.874Z,95458.34
2022-12-11T02:45:34.946Z,95462.03
2022-12-11T02:48:06.851Z,95462.75
2022-12-11T02:50:40.227Z,95461.81
2022-12-11T02:53:11.324Z,95462.53
2022-12-11T02:55:41.616Z,95468.53
2022-12-11T02:58:15.888Z,95471.25
2022-12-11T03:00:46.675Z,95476.34
2022-12-11T03:03:15.504Z,95481.78
2022-12-11T03:05:46.253Z,95475.88
2022-12-11T03:08:18.661Z,95487.22
2022-12-11T03:10:47.291Z,95477.25
2022-12-11T03:13:21.271Z,95478.44
2022-12-11T03:16:09.337Z,95480.34
2022-12-11T03:18:53.647Z,95480.91
2022-12-11T03:21:36.176Z,95477.63
2022-12-11T03:24:10.057Z,95476.47
2022-12-11T03:26:43.709Z,95468.53
2022-12-11T03:29:19.163Z,95465.81
2022-12-11T03:31:54.792Z,95461.69
2022-12-11T03:34:29.119Z,95457.22
2022-12-11T03:37:00.979Z,95466.75
2022-12-11T03:39:33.131Z,95458.97
2022-12-11T03:42:04.038Z,95460.28
2022-12-11T03:44:34.522Z,95469.88
2022-12-11T03:47:08.026Z,95467.16
2022-12-11T03:49:41.063Z,95469.16
2022-12-11T03:52:12.484Z,95473.09
2022-12-11T03:54:43.082Z,95469.31
2022-12-11T03:57:16.215Z,95471.50
2022-12-11T03:59:44.851Z,95473.59
2022-12-11T04:02:14.527Z,95469.69
2022-12-11T04:04:44.187Z,95476.50
2022-12-11T04:07:12.647Z,95477.22
2022-12-11T04:09:40.955Z,95479.09
2022-12-11T04:12:09.320Z,95486.59
2022-12-11T04:14:55.142Z,95472.78
2022-12-11T04:17:42.400Z,95476.69
2022-12-11T04:20:44.320Z,95480.91
2022-12-11T04:23:32.530Z,95476.22
2022-12-11T04:26:06.089Z,95469.16
2022-12-11T04:28:34.926Z,95470.94
2022-12-11T04:31:03.541Z,95466.81
2022-12-11T04:33:33.451Z,95462.34
2022-12-11T04:36:02.116Z,95471.81
2022-12-11T04:38:30.468Z,95473.34
2022-12-11T04:41:00.385Z,95478.84
2022-12-11T04:43:28.738Z,95479.81
2022-12-11T04:46:02.813Z,95481.00
2022-12-11T04:48:31.132Z,95481.84
2022-12-11T04:51:00.893Z,95482.06
2022-12-11T04:53:30.770Z,95481.25
2022-12-11T04:55:59.360Z,95479.03
2022-12-11T04:58:27.755Z,95481.47
2022-12-11T05:00:56.096Z,95483.84
2022-12-11T05:03:24.549Z,95490.94
2022-12-11T05:05:54.705Z,95483.38
2022-12-11T05:08:24.513Z,95495.66
2022-12-11T05:10:57.465Z,95483.84
2022-12-11T05:13:25.889Z,95499.91
2022-12-11T05:15:54.262Z,95491.41
2022-12-11T05:18:22.835Z,95493.31
2022-12-11T05:20:56.930Z,95489.50
2022-12-11T05:23:27.273Z,95491.25
2022-12-11T05:25:57.291Z,95494.13
2022-12-11T05:28:26.889Z,95479.69
2022-12-11T05:30:59.931Z,95484.91
2022-12-11T05:33:28.460Z,95480.88
2022-12-11T05:35:56.929Z,95475.13
2022-12-11T05:38:26.893Z,95477.34
2022-12-11T05:40:59.416Z,95473.16
2022-12-11T05:43:29.367Z,95473.13
2022-12-11T05:46:05.478Z,95482.22
2022-12-11T05:48:33.851Z,95476.50
2022-12-11T05:51:03.948Z,95475.44
2022-12-11T05:53:34.282Z,95470.69
2022-12-11T05:56:03.848Z,95472.72
2022-12-11T05:58:33.136Z,95460.28
2022-12-11T06:01:01.993Z,95472.94
2022-12-11T06:03:30.345Z,95468.31
2022-12-11T06:05:58.775Z,95471.59
2022-12-11T06:08:27.243Z,95471.84
2022-12-11T06:10:56.983Z,95473.97
2022-12-11T06:13:25.630Z,95479.19
2022-12-11T06:15:54.299Z,95482.47
2022-12-11T06:18:22.923Z,95474.44
2022-12-11T06:20:51.207Z,95478.44
2022-12-11T06:23:19.516Z,95479.75
2022-12-11T06:25:47.876Z,95469.78
2022-12-11T06:28:17.633Z,95471.00
2022-12-11T06:30:46.000Z,95470.28
2022-12-11T06:33:14.606Z,95466.03
2022-12-11T06:35:42.962Z,95475.50
2022-12-11T06:38:11.546Z,95478.22
2022-12-11T06:40:39.907Z,95473.34
2022-12-11T06:43:08.368Z,95473.91
2022-12-11T06:45:38.793Z,95472.97
2022-12-11T06:48:07.559Z,95468.59
2022-12-11T06:50:35.891Z,95469.28
2022-12-11T06:53:04.206Z,95477.56
2022-12-11T06:55:35.571Z,95472.34
2022-12-11T06:58:04.108Z,95476.38
2022-12-11T07:00:32.896Z,95473.09
2022-12-11T07:03:02.534Z,95478.28
2022-12-11T07:05:31.868Z,95475.00
2022-12-11T07:08:00.295Z,95489.78
2022-12-11T07:10:28.792Z,95482.22
2022-12-11T07:12:57.585Z,95482.47
2022-12-11T07:15:25.871Z,95483.09
2022-12-11T07:17:54.549Z,95488.63
2022-12-11T07:20:24.325Z,95500.94
2022-12-11T07:22:52.775Z,95498.44
2022-12-11T07:25:21.195Z,95502.34
2022-12-11T07:27:49.563Z,95498.00
2022-12-11T07:30:18.020Z,95499.63
2022-12-11T07:32:46.483Z,95501.31
2022-12-11T07:35:14.927Z,95504.25
2022-12-11T07:37:45.895Z,95501.44
2022-12-11T07:40:15.000Z,95504.03
2022-12-11T07:42:46.286Z,95504.84
2022-12-11T07:45:15.356Z,95505.69
2022-12-11T07:47:43.755Z,95504.13
2022-12-11T07:50:12.173Z,95505.34
2022-12-11T07:52:40.822Z,95500.13
2022-12-11T07:55:11.656Z,95507.69
2022-12-11T07:57:40.274Z,95506.03
2022-12-11T08:00:10.521Z,95516.53
2022-12-11T08:02:39.237Z,95520.22
2022-12-11T08:05:09.179Z,95514.91
2022-12-11T08:07:37.651Z,95511.50
2022-12-11T08:10:06.708Z,95514.19
2022-12-11T08:12:39.700Z,95511.59
2022-12-11T08:15:09.792Z,95515.50
2022-12-11T08:17:40.139Z,95519.38
2022-12-11T08:20:09.595Z,95513.56
2022-12-11T08:22:38.132Z,95505.28
2022-12-11T08:25:07.984Z,95511.63
2022-12-11T08:27:36.498Z,95513.88
2022-12-11T08:30:07.484Z,95518.69
2022-12-11T08:32:36.451Z,95508.28
2022-12-11T08:35:05.332Z,95503.78
2022-12-11T08:37:34.963Z,95507.34
2022-12-11T08:40:04.025Z,95505.81
2022-12-11T08:42:32.341Z,95510.88
2022-12-11T08:45:00.764Z,95515.97
2022-12-11T08:47:30.483Z,95510.38
2022-12-11T08:49:58.827Z,95508.94
2022-12-11T08:52:27.227Z,95514.63
2022-12-11T08:54:55.552Z,95513.03
2022-12-11T08:57:23.930Z,95516.09
2022-12-11T08:59:52.311Z,95514.75
2022-12-11T09:02:20.720Z,95519.44
2022-12-11T09:04:50.557Z,95517.84
2022-12-11T09:07:18.951Z,95504.03
2022-12-11T09:09:47.392Z,95507.22
2022-12-11T09:12:15.781Z,95509.56
2022-12-11T09:14:44.126Z,95513.28
2022-12-11T09:17:18.536Z,95513.75
2022-12-11T09:19:47.041Z,95505.81
2022-12-11T09:22:16.749Z,95500.72
2022-12-11T09:24:46.288Z,95502.94
2022-12-11T09:27:14.811Z,95494.88
2022-12-11T09:29:43.388Z,95511.06
2022-12-11T09:32:12.291Z,95507.13
2022-12-11T09:34:40.587Z,95507.53
2022-12-11T09:37:08.984Z,95507.31
2022-12-11T09:39:38.740Z,95506.22
2022-12-11T09:42:14.611Z,95505.16
2022-12-11T09:44:46.973Z,95502.13
2022-12-11T09:47:24.935Z,95493.50
2022-12-11T09:49:59.897Z,95495.03
2022-12-11T09:52:35.807Z,95500.66
2022-12-11T09:55:14.516Z,95501.72
2022-12-11T09:57:51.844Z,95490.34
2022-12-11T10:00:28.120Z,95491.44
2022-12-11T10:03:41.261Z,95492.78
2022-12-11T10:06:16.117Z,95491.22
2022-12-11T10:08:52.713Z,95485.66
2022-12-11T10:11:40.054Z,95479.22
2022-12-11T10:14:17.280Z,95482.25
2022-12-11T10:16:48.181Z,95484.50
2022-12-11T10:19:20.513Z,95487.31
2022-12-11T10:21:50.256Z,95477.34
2022-12-11T10:24:48.866Z,95470.91
2022-12-11T10:27:21.236Z,95457.63
2022-12-11T10:29:55.145Z,95453.50
2022-12-11T10:32:25.727Z,95456.41
2022-12-11T10:35:00.376Z,95448.72
2022-12-11T10:37:28.866Z,95447.22
2022-12-11T10:39:57.244Z,95456.13
2022-12-11T10:42:26.988Z,95452.25
2022-12-11T10:45:00.481Z,95453.63
2022-12-11T10:47:30.032Z,95451.31
2022-12-11T10:50:01.943Z,95441.84
2022-12-11T10:52:34.670Z,95430.72
2022-12-11T10:55:05.716Z,95430.84
2022-12-11T10:57:39.552Z,95427.41
2022-12-11T11:00:10.422Z,95432.22
2022-12-11T11:02:40.552Z,95424.66
2022-12-11T11:05:18.291Z,95428.75
2022-12-11T11:07:46.703Z,95419.44
2022-12-11T11:10:17.807Z,95419.03
2022-12-11T11:12:49.592Z,95415.22
2022-12-11T11:15:20.797Z,95407.81
2022-12-11T11:17:55.380Z,95406.16
2022-12-11T11:20:26.570Z,95405.19
2022-12-11T11:22:57.853Z,95403.69
2022-12-11T11:25:28.176Z,95407.22
2022-12-11T11:28:01.296Z,95398.88
2022-12-11T11:30:32.234Z,95394.88
2022-12-11T11:33:04.630Z,95396.66
2022-12-11T11:35:34.067Z,95391.84
2022-12-11T11:38:10.897Z,95383.72
2022-12-11T11:40:45.651Z,95380.00
2022-12-11T11:43:22.606Z,95378.63
2022-12-11T11:45:58.737Z,95378.53
2022-12-11T11:48:36.173Z,95379.31
2022-12-11T11:51:15.027Z,95378.34
2022-12-11T11:53:48.270Z,95377.09
2022-12-11T11:56:22.421Z,95368.28
2022-12-11T11:59:04.069Z,95371.88
2022-12-11T12:01:32.926Z,95377.97
2022-12-11T12:04:03.872Z,95372.19
2022-12-11T12:06:50.471Z,95368.63
2022-12-11T12:09:32.382Z,95378.47
2022-12-11T12:12:22.793Z,95371.84
2022-12-11T12:15:18.291Z,95368.16
2022-12-11T12:17:56.179Z,95366.00
2022-12-11T12:20:44.372Z,95363.44
2022-12-11T12:23:39.719Z,95367.38
2022-12-11T12:26:16.296Z,95367.22
2022-12-11T12:28:53.920Z,95371.19
2022-12-11T12:31:39.215Z,95372.47
2022-12-11T12:34:22.836Z,95370.53
2022-12-11T12:37:01.091Z,95376.84
2022-12-11T12:39:35.827Z,95372.91
2022-12-11T12:42:11.631Z,95373.19
2022-12-11T12:44:51.248Z,95377.16
2022-12-11T12:47:23.230Z,95375.53
2022-12-11T12:49:54.218Z,95368.78
2022-12-11T12:52:27.356Z,95372.78
2022-12-11T12:55:18.855Z,95370.19
2022-12-11T12:57:51.252Z,95364.47
2022-12-11T13:00:31.622Z,95365.19
2022-12-11T13:03:03.804Z,95365.03
2022-12-11T13:05:35.531Z,95361.88
2022-12-11T13:08:06.128Z,95362.97
2022-12-11T13:10:37.051Z,95363.50
2022-12-11T13:13:26.320Z,95365.97
2022-12-11T13:15:54.718Z,95368.28
2022-12-11T13:18:36.278Z,95362.97
2022-12-11T13:21:25.650Z,95359.78
2022-12-11T13:23:54.228Z,95357.19
2022-12-11T13:26:30.633Z,95362.28
2022-12-11T13:28:59.647Z,95356.81
2022-12-11T13:31:35.031Z,95359.56
2022-12-11T13:34:18.474Z,95368.63
2022-12-11T13:36:50.180Z,95359.56
2022-12-11T13:39:21.292Z,95361.03
2022-12-11T13:41:53.620Z,95370.78
2022-12-11T13:44:27.063Z,95367.34
2022-12-11T13:46:58.269Z,95370.41
2022-12-11T13:49:33.485Z,95366.00
2022-12-11T13:52:02.927Z,95371.47
2022-12-11T13:54:33.423Z,95379.47
2022-12-11T13:57:05.431Z,95379.16
2022-12-11T13:59:36.950Z,95378.63
2022-12-11T14:02:14.586Z,95380.53
2022-12-11T14:04:44.712Z,95380.53
2022-12-11T14:07:13.527Z,95378.91
2022-12-11T14:09:45.460Z,95375.63
2022-12-11T14:12:19.086Z,95376.31
2022-12-11T14:14:51.442Z,95374.97
2022-12-11T14:17:27.814Z,95383.47
2022-12-11T14:20:00.335Z,95380.84
2022-12-11T14:22:30.444Z,95385.09
2022-12-11T14:25:00.919Z,95383.59
2022-12-11T14:27:29.346Z,95385.38
2022-12-11T14:29:57.779Z,95390.97
2022-12-11T14:32:34.787Z,95381.53
2022-12-11T14:35:09.197Z,95385.06
2022-12-11T14:37:39.656Z,95390.00
2022-12-11T14:40:11.510Z,95390.66
2022-12-11T14:42:45.205Z,95391.44
2022-12-11T14:45:21.793Z,95389.91
2022-12-11T14:47:51.835Z,95391.25
2022-12-11T14:50:27.048Z,95392.19
2022-12-11T14:53:00.991Z,95394.03
2022-12-11T14:55:31.734Z,95397.63
2022-12-11T14:58:03.765Z,95391.44
2022-12-11T15:00:35.820Z,95391.53
2022-12-11T15:03:07.227Z,95398.28
2022-12-11T15:05:40.945Z,95396.25
2022-12-11T15:08:24.790Z,95396.06
2022-12-11T15:11:05.659Z,95387.56
2022-12-11T15:13:36.301Z,95393.81
2022-12-11T15:16:07.680Z,95389.53
2022-12-11T15:18:39.204Z,95386.69
2022-12-11T15:21:11.995Z,95382.72
2022-12-11T15:23:51.438Z,95383.91
2022-12-11T15:26:20.536Z,95387.94
2022-12-11T15:28:48.920Z,95384.72
2022-12-11T15:31:27.783Z,95393.22
2022-12-11T15:33:56.173Z,95386.28
2022-12-11T15:36:31.378Z,95390.34
2022-12-11T15:38:59.791Z,95393.88
2022-12-11T15:41:33.095Z,95390.19
2022-12-11T15:44:03.589Z,95399.38
2022-12-11T15:46:37.539Z,95391.47
2022-12-11T15:49:13.633Z,95401.16
2022-12-11T15:51:43.643Z,95395.28
2022-12-11T15:54:12.201Z,95404.56
2022-12-11T15:56:40.684Z,95400.22
2022-12-11T15:59:09.223Z,95402.72
2022-12-11T16:01:37.644Z,95406.34
2022-12-11T16:04:06.214Z,95405.72
2022-12-11T16:06:35.201Z,95400.84
2022-12-11T16:09:05.711Z,95401.31
2022-12-11T16:11:34.012Z,95409.94
2022-12-11T16:14:04.342Z,95410.19
2022-12-11T16:16:33.374Z,95410.78
2022-12-11T16:19:01.928Z,95415.47
2022-12-11T16:21:30.347Z,95406.72
2022-12-11T16:23:58.716Z,95410.84
2022-12-11T16:26:28.483Z,95413.31
2022-12-11T16:28:56.984Z,95410.72
2022-12-11T16:31:25.327Z,95405.91
2022-12-11T16:33:53.747Z,95409.81
2022-12-11T16:36:22.143Z,95407.72
2022-12-11T16:38:53.905Z,95409.84
2022-12-11T16:41:23.811Z,95411.16
2022-12-11T16:43:55.322Z,95416.94
2022-12-11T16:46:24.959Z,95412.13
2022-12-11T16:48:53.393Z,95418.28
2022-12-11T16:51:21.760Z,95417.13
2022-12-11T16:53:50.358Z,95423.50
2022-12-11T16:56:18.777Z,95424.09
2022-12-11T16:58:48.224Z,95421.22
2022-12-11T17:01:18.135Z,95418.53
2022-12-11T17:03:46.728Z,95419.94
2022-12-11T17:06:18.049Z,95436.09
2022-12-11T17:08:47.372Z,95425.81
2022-12-11T17:11:18.488Z,95427.69
2022-12-11T17:13:47.210Z,95425.06
2022-12-11T17:16:18.160Z,95429.56
2022-12-11T17:18:46.671Z,95419.88
2022-12-11T17:21:17.507Z,95430.34
2022-12-11T17:23:46.592Z,95433.16
2022-12-11T17:26:15.527Z,95429.25
2022-12-11T17:28:44.714Z,95429.72
2022-12-11T17:31:16.786Z,95428.34
2022-12-11T17:33:47.420Z,95423.75
2022-12-11T17:36:17.777Z,95423.03
2022-12-11T17:38:46.705Z,95428.00
2022-12-11T17:41:20.410Z,95432.00
2022-12-11T17:43:49.987Z,95427.50
2022-12-11T17:46:19.225Z,95430.91
2022-12-11T17:48:49.596Z,95429.00
2022-12-11T17:51:23.836Z,95428.91
2022-12-11T17:53:52.894Z,95434.91
2022-12-11T17:56:21.311Z,95440.81
2022-12-11T17:58:49.674Z,95436.56
2022-12-11T18:01:18.267Z,95443.56
2022-12-11T18:03:48.284Z,95444.59
2022-12-11T18:06:17.759Z,95448.41
2022-12-11T18:08:46.373Z,95452.09
2022-12-11T18:11:22.950Z,95451.28
2022-12-11T18:13:52.760Z,95448.69
2022-12-11T18:16:24.460Z,95456.22
2022-12-11T18:18:54.909Z,95452.78
2022-12-11T18:21:25.831Z,95451.97
2022-12-11T18:23:54.412Z,95444.03
2022-12-11T18:26:23.462Z,95450.06
2022-12-11T18:28:52.990Z,95447.59
2022-12-11T18:31:22.480Z,95452.91
2022-12-11T18:33:51.252Z,95447.59
2022-12-11T18:36:22.679Z,95452.69
2022-12-11T18:38:51.100Z,95446.41
2022-12-11T18:41:20.988Z,95442.00
2022-12-11T18:43:49.434Z,95440.38
2022-12-11T18:46:19.994Z,95444.88
2022-12-11T18:48:49.109Z,95454.81
2022-12-11T18:51:22.613Z,95453.53
2022-12-11T18:53:51.077Z,95450.34
2022-12-11T18:56:21.240Z,95454.34
2022-12-11T18:58:49.893Z,95452.72
2022-12-11T19:01:20.257Z,95443.13
2022-12-11T19:03:48.887Z,95446.22
2022-12-11T19:06:21.103Z,95452.63
2022-12-11T19:08:49.504Z,95453.34
2022-12-11T19:11:19.219Z,95455.94
2022-12-11T19:13:48.392Z,95456.88
2022-12-11T19:16:18.317Z,95450.03
2022-12-11T19:18:47.008Z,95454.53
2022-12-11T19:21:17.615Z,95452.88
2022-12-11T19:23:47.635Z,95456.78
2022-12-11T19:26:18.846Z,95464.38
2022-12-11T19:28:48.318Z,95460.25
2022-12-11T19:31:18.861Z,95463.56
2022-12-11T19:33:47.355Z,95457.53
2022-12-11T19:36:18.138Z,95459.06
2022-12-11T19:38:47.883Z,95459.63
2022-12-11T19:41:19.819Z,95462.69
2022-12-11T19:43:48.413Z,95462.31
2022-12-11T19:46:18.205Z,95458.66
2022-12-11T19:48:49.088Z,95457.72
2022-12-11T19:51:19.359Z,95463.03
2022-12-11T19:53:49.984Z,95457.84
2022-12-11T19:56:19.775Z,95454.41
2022-12-11T19:58:49.935Z,95455.94
2022-12-11T20:01:24.960Z,95454.03
2022-12-11T20:03:53.719Z,95448.84
2022-12-11T20:06:22.725Z,95455.53
2022-12-11T20:08:52.442Z,95451.31
2022-12-11T20:11:20.944Z,95449.66
2022-12-11T20:13:50.088Z,95452.88
2022-12-11T20:16:39.214Z,95457.97
2022-12-11T20:19:08.692Z,95459.28
2022-12-11T20:21:37.103Z,95455.75
2022-12-11T20:24:07.667Z,95450.28
2022-12-11T20:26:36.992Z,95452.19
2022-12-11T20:29:08.353Z,95456.84
2022-12-11T20:31:37.878Z,95462.03
2022-12-11T20:34:07.199Z,95449.75
2022-12-11T20:36:35.899Z,95449.06
2022-12-11T20:39:06.257Z,95456.06
2022-12-11T20:41:34.624Z,95450.88
2022-12-11T20:44:02.939Z,95449.09
2022-12-11T20:46:31.294Z,95450.75
2022-12-11T20:48:59.756Z,95451.47
2022-12-11T20:51:29.172Z,95449.22
2022-12-11T20:53:59.508Z,95453.09
2022-12-11T20:56:31.583Z,95447.56
2022-12-11T20:59:00.895Z,95456.41
2022-12-11T21:01:32.373Z,95454.41
2022-12-11T21:04:01.362Z,95454.06
2022-12-11T21:06:32.650Z,95453.34
2022-12-11T21:09:05.624Z,95449.47
2022-12-11T21:11:35.557Z,95455.13
2022-12-11T21:14:03.890Z,95459.38
2022-12-11T21:16:32.394Z,95460.34
2022-12-11T21:19:01.622Z,95463.75
2022-12-11T21:21:32.268Z,95455.97
2022-12-11T21:24:00.612Z,95452.75
2022-12-11T21:26:28.995Z,95459.84
2022-12-11T21:28:58.656Z,95462.19
2022-12-11T21:31:27.299Z,95456.28
2022-12-11T21:33:55.908Z,95461.97
2022-12-11T21:36:24.312Z,95464.34
2022-12-11T21:38:52.759Z,95466.44
2022-12-11T21:41:22.930Z,95466.44
2022-12-11T21:46:43.386Z,95465.88
2022-12-11T21:49:11.995Z,95470.72
2022-12-11T21:51:46.727Z,95467.63
2022-12-11T21:54:18.867Z,95461.16
2022-12-11T21:56:47.979Z,95466.91
2022-12-11T21:59:16.899Z,95467.75
2022-12-11T22:01:47.460Z,95462.28
2022-12-11T22:04:16.545Z,95468.19
2022-12-11T22:06:47.054Z,95465.25
2022-12-11T22:09:17.887Z,95465.94
2022-12-11T22:11:47.640Z,95456.63
2022-12-11T22:14:18.010Z,95462.44
2022-12-11T22:16:47.892Z,95459.72
2022-12-11T22:19:16.264Z,95456.06
2022-12-11T22:21:44.673Z,95457.59
2022-12-11T22:24:14.066Z,95463.84
2022-12-11T22:26:42.393Z,95466.72
2022-12-11T22:29:10.843Z,95461.03
2022-12-11T22:31:39.191Z,95470.22
2022-12-11T22:34:09.120Z,95469.78
2022-12-11T22:36:38.435Z,95465.50
2022-12-11T22:39:06.800Z,95470.09
2022-12-11T22:41:38.315Z,95467.16
2022-12-11T22:44:06.616Z,95469.16
2022-12-11T22:46:34.962Z,95468.78
2022-12-11T22:49:04.205Z,95469.50
2022-12-11T22:51:34.678Z,95471.63
2022-12-11T22:54:03.282Z,95474.84
2022-12-11T22:56:31.714Z,95478.72
2022-12-11T22:59:01.019Z,95478.94
2022-12-11T23:01:29.451Z,95472.31
2022-12-11T23:03:57.716Z,95480.81
2022-12-11T23:06:26.529Z,95478.00
2022-12-11T23:08:59.262Z,95475.75
2022-12-11T23:11:30.663Z,95468.31
2022-12-11T23:13:59.182Z,95473.50
2022-12-11T23:16:28.837Z,95473.63
2022-12-11T23:18:58.130Z,95464.06
2022-12-11T23:21:28.031Z,95464.31
2022-12-11T23:23:58.195Z,95468.91
2022-12-11T23:26:28.272Z,95464.03
2022-12-11T23:28:58.051Z,95464.50
2022-12-11T23:31:27.904Z,95461.69
2022-12-11T23:33:56.261Z,95456.84
2022-12-11T23:36:26.335Z,95463.69
2022-12-11T23:38:55.362Z,95461.00
2022-12-11T23:41:25.514Z,95464.41
2022-12-11T23:43:53.842Z,95464.16
2022-12-11T23:46:24.474Z,95462.63
2022-12-11T23:48:53.553Z,95465.13
2022-12-11T23:51:23.551Z,95457.84
2022-12-11T23:53:52.618Z,95465.47
2022-12-11T23:56:23.142Z,95467.13
2022-12-11T23:58:52.899Z,95467.34
